Time;durP1;ratioP1;P1;durP2;ratioP2;P2;SDS_P1;SDS_P2;PMS_P1;PMS_P2;Temp;Humidity;BMP_temperature;BMP_pressure;BME280_temperature;BME280_humidity;BME280_pressure;Samples;Min_cycle;Max_cycle;Signal;HPM_P1;HPM_P2
2022/05/15 00:01:18;;;;;;;;;;;;;;;17.68;39.85;100787.09;4809160;29;857;-63
2022/05/15 00:03:44;;;;;;;;;;;;;;;17.67;39.77;100779.97;4809331;29;770;-63
2022/05/15 00:06:09;;;;;;;;;;;;;;;17.61;40.01;100770.06;4809047;29;821;-63
2022/05/15 00:08:35;;;;;;;;;;;;;;;17.61;39.85;100779.16;4809381;29;797;-63
2022/05/15 00:11:01;;;;;;;;;;;;;;;17.58;40.11;100784.38;4807606;29;887;-63
2022/05/15 00:13:27;;;;;;;;;;;;;;;17.61;39.93;100783.81;4808878;29;825;-63
2022/05/15 00:15:52;;;;;;;;;;;;;;;17.57;40.19;100790.97;4808598;29;1983;-64
2022/05/15 00:18:18;;;;;;;;;;;;;;;17.58;40.13;100776.94;4809409;29;776;-63
2022/05/15 00:20:43;;;;;;;;;;;;;;;17.63;39.83;100781.63;4808921;29;837;-64
2022/05/15 00:23:09;;;;;;;;;;;;;;;17.61;40.08;100778.31;4808478;29;871;-64
2022/05/15 00:25:35;;;;;;;;;;;;;;;17.60;39.81;100790.44;4809212;29;847;-64
2022/05/15 00:28:00;;;;;;;;;;;;;;;17.57;40.15;100789.06;4808578;29;1267;-64
2022/05/15 00:30:26;;;;;;;;;;;;;;;17.56;39.91;100786.59;4808829;29;997;-64
2022/05/15 00:32:51;;;;;;;;;;;;;;;17.55;39.83;100791.25;4808851;29;841;-63
2022/05/15 00:35:17;;;;;;;;;;;;;;;17.55;39.88;100782.19;4808334;29;2009;-63
2022/05/15 00:37:42;;;;;;;;;;;;;;;17.54;40.10;100783.28;4808881;29;788;-63
2022/05/15 00:40:08;;;;;;;;;;;;;;;17.53;39.97;100771.50;4809367;29;812;-63
2022/05/15 00:42:34;;;;;;;;;;;;;;;17.52;39.98;100775.34;4808550;29;808;-63
2022/05/15 00:44:59;;;;;;;;;;;;;;;17.47;40.36;100771.78;4808733;29;1016;-63
2022/05/15 00:47:24;;;;;;;;;;;;;;;17.49;39.95;100775.91;4808278;29;866;-63
2022/05/15 00:49:50;;;;;;;;;;;;;;;17.50;40.32;100773.97;4808670;29;840;-63
2022/05/15 00:52:16;;;;;;;;;;;;;;;17.53;39.86;100784.38;4806708;29;1415;-63
2022/05/15 00:55:02;;;;;;;;;;;;;;;17.53;39.76;100778.91;4807493;29;879;-63
2022/05/15 00:57:28;;;;;;;;;;;;;;;17.51;39.74;100795.66;4808140;29;1131;-63
2022/05/15 00:59:58;;;;;;;;;;;;;;;17.52;39.84;100797.31;4807168;29;1431;-63
2022/05/15 01:02:25;;;;;;;;;;;;;;;17.45;39.76;100799.56;4807582;29;1124;-63
2022/05/15 01:04:50;;;;;;;;;;;;;;;17.46;39.72;100803.94;4808239;29;836;-64
2022/05/15 01:07:16;;;;;;;;;;;;;;;17.51;39.47;100794.84;4807516;29;1180;-63
2022/05/15 01:09:41;;;;;;;;;;;;;;;17.48;39.88;100795.44;4807479;29;1521;-63
2022/05/15 01:12:08;;;;;;;;;;;;;;;17.46;39.60;100795.72;4806896;29;1415;-63
2022/05/15 01:14:33;;;;;;;;;;;;;;;17.44;39.93;100801.47;4808542;29;964;-63
2022/05/15 01:16:59;;;;;;;;;;;;;;;17.41;39.85;100795.72;4806571;29;2026;-63
2022/05/15 01:19:29;;;;;;;;;;;;;;;17.47;39.75;100789.09;4807150;29;1237;-63
2022/05/15 01:21:56;;;;;;;;;;;;;;;17.45;39.83;100789.38;4807238;29;1092;-63
2022/05/15 01:24:22;;;;;;;;;;;;;;;17.43;39.94;100783.34;4808629;29;794;-63
2022/05/15 01:26:49;;;;;;;;;;;;;;;17.41;39.95;100782.78;4806699;29;1111;-63
2022/05/15 01:29:15;;;;;;;;;;;;;;;17.43;39.85;100777.84;4807310;29;1364;-63
2022/05/15 01:31:41;;;;;;;;;;;;;;;17.43;39.92;100772.34;4806749;29;1371;-63
2022/05/15 01:34:07;;;;;;;;;;;;;;;17.42;39.95;100773.44;4808756;29;865;-63
2022/05/15 01:36:33;;;;;;;;;;;;;;;17.42;40.21;100767.94;4810440;29;1903;-64
2022/05/15 01:39:01;;;;;;;;;;;;;;;17.40;39.90;100769.31;4801281;29;1163;-63
2022/05/15 01:41:27;;;;;;;;;;;;;;;17.35;39.99;100772.06;4792384;30;1273;-63
2022/05/15 01:43:53;;;;;;;;;;;;;;;17.41;40.19;100768.22;4792537;30;1155;-63
2022/05/15 01:46:21;;;;;;;;;;;;;;;17.35;40.23;100767.41;4803630;29;1246;-64
2022/05/15 01:48:47;;;;;;;;;;;;;;;17.36;40.32;100762.72;4810165;29;1313;-63
2022/05/15 01:51:13;;;;;;;;;;;;;;;17.34;40.22;100760.25;4810152;29;1246;-64
2022/05/15 01:53:39;;;;;;;;;;;;;;;17.33;40.02;100766.03;4810194;29;1277;-64
2022/05/15 01:56:05;;;;;;;;;;;;;;;17.33;40.23;100758.59;4811147;29;1974;-64
2022/05/15 01:58:30;;;;;;;;;;;;;;;17.29;40.04;100765.75;4809949;29;1376;-64
2022/05/15 02:00:56;;;;;;;;;;;;;;;17.31;39.98;100751.78;4809971;29;1359;-64
2022/05/15 02:03:21;;;;;;;;;;;;;;;17.30;40.16;100761.91;4810057;29;1156;-64
2022/05/15 02:05:47;;;;;;;;;;;;;;;17.30;39.95;100766.59;4811599;29;828;-64
2022/05/15 02:08:12;;;;;;;;;;;;;;;17.26;40.03;100767.16;4809731;29;1131;-63
2022/05/15 02:10:38;;;;;;;;;;;;;;;17.32;39.96;100775.38;4811172;29;901;-64
2022/05/15 02:13:03;;;;;;;;;;;;;;;17.35;40.47;100778.41;4809936;29;1313;-64
2022/05/15 02:15:29;;;;;;;;;;;;;;;17.52;40.99;100778.09;4810507;29;1974;-63
2022/05/15 02:17:56;;;;;;;;;;;;;;;17.61;41.66;100787.41;4809645;29;1177;-64
2022/05/15 02:20:21;;;;;;;;;;;;;;;17.75;42.03;100789.53;4811136;29;797;-63
2022/05/15 02:22:47;;;;;;;;;;;;;;;17.77;42.32;100799.16;4809760;29;1110;-64
2022/05/15 02:25:13;;;;;;;;;;;;;;;17.87;42.56;100803.81;4809997;29;1331;-62
2022/05/15 02:27:41;;;;;;;;;;;;;;;17.88;42.83;100799.09;4809495;29;1385;-62
2022/05/15 02:30:07;;;;;;;;;;;;;;;17.89;42.95;100798.84;4809052;29;1427;-63
2022/05/15 02:32:32;;;;;;;;;;;;;;;17.94;43.18;100803.53;4810989;29;861;-63
2022/05/15 02:34:58;;;;;;;;;;;;;;;18.01;43.12;100819.75;4809591;29;1241;-61
2022/05/15 02:37:23;;;;;;;;;;;;;;;18.02;43.25;100821.38;4809174;29;1915;-61
2022/05/15 02:39:49;;;;;;;;;;;;;;;17.96;43.41;100795.81;4809241;29;808;-61
2022/05/15 02:42:14;;;;;;;;;;;;;;;18.10;43.45;100815.28;4809254;29;1302;-61
2022/05/15 02:44:41;;;;;;;;;;;;;;;18.17;43.40;100823.22;4809314;29;1523;-61
2022/05/15 02:47:06;;;;;;;;;;;;;;;18.22;43.42;100820.47;4809918;29;880;-62
2022/05/15 02:52:16;;;;;;;;;;;;;;;18.13;43.11;100821.06;4810760;29;757;-62
2022/05/15 02:54:43;;;;;;;;;;;;;;;18.09;42.89;100822.72;4808812;29;1119;-62
2022/05/15 02:57:09;;;;;;;;;;;;;;;18.06;42.33;100826.03;4809034;29;1990;-65
2022/05/15 02:59:34;;;;;;;;;;;;;;;17.99;41.93;100827.44;4808861;29;1156;-66
2022/05/15 03:02:00;;;;;;;;;;;;;;;17.97;41.61;100830.47;4810314;29;972;-61
2022/05/15 03:04:26;;;;;;;;;;;;;;;17.91;41.37;100831.63;4808533;29;1450;-59
2022/05/15 03:06:51;;;;;;;;;;;;;;;17.88;41.21;100843.13;4808692;29;1128;-60
2022/05/15 03:09:17;;;;;;;;;;;;;;;17.84;40.73;100836.53;4810006;29;944;-59
2022/05/15 03:11:43;;;;;;;;;;;;;;;17.81;40.57;100848.09;4810041;29;866;-59
2022/05/15 03:14:09;;;;;;;;;;;;;;;17.78;40.45;100849.47;4809094;29;1256;-59
2022/05/15 03:16:35;;;;;;;;;;;;;;;17.77;40.33;100867.13;4810031;29;1907;-59
2022/05/15 03:19:00;;;;;;;;;;;;;;;17.70;40.28;100863.84;4809847;29;813;-62
2022/05/15 03:21:29;;;;;;;;;;;;;;;17.69;40.45;100864.94;4796136;29;1320;-60
2022/05/15 03:23:59;;;;;;;;;;;;;;;17.63;40.02;100875.13;4790239;30;763;-60
2022/05/15 03:26:25;;;;;;;;;;;;;;;17.67;39.92;100872.63;4791427;30;863;-62
2022/05/15 03:28:50;;;;;;;;;;;;;;;17.60;39.88;100875.69;4790225;30;1020;-61
2022/05/15 03:31:16;;;;;;;;;;;;;;;17.55;40.16;100868.25;4802640;29;825;-61
2022/05/15 03:33:41;;;;;;;;;;;;;;;17.53;39.79;100853.97;4806033;29;1157;-65
2022/05/15 03:36:11;;;;;;;;;;;;;;;17.55;39.75;100867.44;4808281;29;1911;-62
2022/05/15 03:38:40;;;;;;;;;;;;;;;17.55;39.90;100864.69;4809505;29;1399;-62
2022/05/15 03:41:05;;;;;;;;;;;;;;;17.53;39.78;100870.47;4808265;29;908;-61
2022/05/15 03:43:31;;;;;;;;;;;;;;;17.48;39.80;100864.97;4808084;29;1517;-61
2022/05/15 03:45:56;;;;;;;;;;;;;;;17.47;40.02;100870.75;4808797;29;1020;-62
2022/05/15 03:48:22;;;;;;;;;;;;;;;17.49;39.72;100868.53;4809481;29;858;-60
2022/05/15 03:50:47;;;;;;;;;;;;;;;17.50;39.50;100872.94;4808132;29;869;-60
2022/05/15 03:53:13;;;;;;;;;;;;;;;17.46;39.51;100883.69;4808957;29;804;-61
2022/05/15 03:55:38;;;;;;;;;;;;;;;17.48;39.72;100895.22;4807883;29;1911;-59
2022/05/15 03:58:04;;;;;;;;;;;;;;;17.45;39.62;100890.28;4807733;29;1377;-60
2022/05/15 04:00:30;;;;;;;;;;;;;;;17.38;39.91;100889.72;4808498;29;1252;-60
2022/05/15 04:02:56;;;;;;;;;;;;;;;17.45;39.52;100896.56;4807418;29;1304;-64
2022/05/15 04:05:22;;;;;;;;;;;;;;;17.40;39.88;100899.34;4808768;29;792;-64
2022/05/15 04:07:48;;;;;;;;;;;;;;;17.38;39.85;100901.53;4805994;29;835;-64
2022/05/15 04:10:15;;;;;;;;;;;;;;;17.43;39.81;100903.44;4806986;29;1211;-63
2022/05/15 04:12:41;;;;;;;;;;;;;;;17.36;39.74;100914.75;4807531;29;879;-63
2022/05/15 04:15:07;;;;;;;;;;;;;;;17.40;39.82;100915.84;4807375;29;1990;-66
2022/05/15 04:17:33;;;;;;;;;;;;;;;17.38;39.66;100911.72;4809043;29;835;-64
2022/05/15 04:20:03;;;;;;;;;;;;;;;17.33;39.84;100918.03;4807463;29;758;-65
2022/05/15 04:22:28;;;;;;;;;;;;;;;17.36;39.71;100920.25;4809367;29;898;-64
2022/05/15 04:24:53;;;;;;;;;;;;;;;17.38;39.63;100923.53;4808986;29;870;-64
2022/05/15 04:27:19;;;;;;;;;;;;;;;17.40;39.43;100920.50;4808582;29;1180;-64
2022/05/15 04:29:45;;;;;;;;;;;;;;;17.33;39.83;100925.44;4792760;29;1085;-63
2022/05/15 04:32:10;;;;;;;;;;;;;;;17.29;39.85;100925.16;4807200;29;1011;-63
2022/05/15 04:34:36;;;;;;;;;;;;;;;17.35;39.65;100923.25;4809082;29;812;-64
2022/05/15 04:37:01;;;;;;;;;;;;;;;17.27;39.82;100927.38;4808669;29;1908;-63
2022/05/15 04:39:27;;;;;;;;;;;;;;;17.29;39.76;100925.16;4808543;29;833;-64
2022/05/15 04:41:52;;;;;;;;;;;;;;;17.28;39.79;100924.34;4808633;29;851;-64
2022/05/15 04:44:18;;;;;;;;;;;;;;;17.27;39.99;100927.38;4809070;29;811;-64
2022/05/15 04:46:43;;;;;;;;;;;;;;;17.26;39.97;100925.72;4808314;29;772;-64
2022/05/15 04:49:09;;;;;;;;;;;;;;;17.26;39.84;100926.56;4808540;29;863;-65
2022/05/15 04:51:34;;;;;;;;;;;;;;;17.23;39.70;100929.03;4808567;29;872;-64
2022/05/15 04:54:00;;;;;;;;;;;;;;;17.24;39.65;100939.75;4809047;29;766;-64
2022/05/15 04:56:25;;;;;;;;;;;;;;;17.23;39.93;100929.84;4808539;29;1908;-64
2022/05/15 04:58:51;;;;;;;;;;;;;;;17.22;39.93;100936.47;4808504;29;820;-64
2022/05/15 05:01:18;;;;;;;;;;;;;;;17.21;39.93;100936.72;4808171;29;904;-64
2022/05/15 05:03:43;;;;;;;;;;;;;;;17.23;39.95;100945.50;4808684;29;854;-65
2022/05/15 05:06:09;;;;;;;;;;;;;;;17.23;39.78;100945.50;4808708;29;863;-64
2022/05/15 05:08:34;;;;;;;;;;;;;;;17.23;39.86;100948.25;4808651;29;772;-64
2022/05/15 05:11:00;;;;;;;;;;;;;;;17.22;39.78;100946.59;4811492;29;832;-64
2022/05/15 05:13:25;;;;;;;;;;;;;;;17.19;39.93;100947.97;4812452;29;773;-64
2022/05/15 05:15:50;;;;;;;;;;;;;;;17.20;39.82;100946.88;4811517;29;1980;-65
2022/05/15 05:18:17;;;;;;;;;;;;;;;17.23;40.22;100945.50;4811967;29;825;-65
2022/05/15 05:20:43;;;;;;;;;;;;;;;17.42;40.56;100951.31;4811895;29;861;-65
2022/05/15 05:23:08;;;;;;;;;;;;;;;17.52;41.57;100940.28;4812285;29;797;-64
2022/05/15 05:25:34;;;;;;;;;;;;;;;17.68;42.00;100943.84;4812269;29;790;-64
2022/05/15 05:27:59;;;;;;;;;;;;;;;17.77;42.24;100947.69;4811477;29;1294;-64
2022/05/15 05:30:25;;;;;;;;;;;;;;;17.87;42.74;100935.03;4811710;29;1008;-64
2022/05/15 05:32:50;;;;;;;;;;;;;;;17.88;42.91;100940.25;4811428;29;868;-64
2022/05/15 05:35:16;;;;;;;;;;;;;;;17.98;43.10;100949.59;4812022;29;1907;-64
2022/05/15 05:37:41;;;;;;;;;;;;;;;18.04;43.11;100945.75;4812264;29;766;-64
2022/05/15 05:40:07;;;;;;;;;;;;;;;18.06;43.60;100952.63;4811297;29;886;-65
2022/05/15 05:42:32;;;;;;;;;;;;;;;18.08;43.75;100944.91;4811689;29;824;-64
2022/05/15 05:44:58;;;;;;;;;;;;;;;18.13;43.75;100953.16;4811962;29;834;-64
2022/05/15 05:47:24;;;;;;;;;;;;;;;18.18;43.72;100951.50;4810012;29;850;-64
2022/05/15 05:49:49;;;;;;;;;;;;;;;18.24;43.67;100956.69;4811293;29;785;-64
2022/05/15 05:52:15;;;;;;;;;;;;;;;18.28;44.12;100962.44;4811160;29;844;-64
2022/05/15 05:54:41;;;;;;;;;;;;;;;18.22;43.34;100963.59;4811037;29;957;-64
2022/05/15 05:57:07;;;;;;;;;;;;;;;18.09;42.84;100954.81;4811587;29;1911;-64
2022/05/15 05:59:32;;;;;;;;;;;;;;;18.01;42.47;100958.13;4812036;29;786;-64
2022/05/15 06:01:58;;;;;;;;;;;;;;;17.96;41.75;100952.63;4811135;29;931;-64
2022/05/15 06:04:40;;;;;;;;;;;;;;;17.88;41.36;100958.66;4811381;29;839;-64
2022/05/15 06:07:06;;;;;;;;;;;;;;;17.86;41.04;100960.88;4810762;29;991;-65
2022/05/15 06:09:31;;;;;;;;;;;;;;;17.85;40.71;100959.22;4811285;29;1233;-63
2022/05/15 06:11:56;;;;;;;;;;;;;;;17.79;40.57;100958.41;4811232;29;833;-63
2022/05/15 06:14:22;;;;;;;;;;;;;;;17.72;40.30;100964.19;4811108;29;752;-64
2022/05/15 06:16:47;;;;;;;;;;;;;;;17.73;40.07;100957.59;4810992;29;1974;-66
2022/05/15 06:19:13;;;;;;;;;;;;;;;17.71;40.21;100953.47;4810882;29;902;-63
2022/05/15 06:21:38;;;;;;;;;;;;;;;17.63;39.92;100963.13;4809696;29;933;-65
2022/05/15 06:24:04;;;;;;;;;;;;;;;17.60;39.96;100958.19;4810875;29;894;-66
2022/05/15 06:26:30;;;;;;;;;;;;;;;17.58;39.86;100949.34;4811051;29;886;-64
2022/05/15 06:28:55;;;;;;;;;;;;;;;17.55;39.76;100947.16;4810772;29;1253;-61
2022/05/15 06:31:21;;;;;;;;;;;;;;;17.53;39.65;100952.09;4810248;29;1016;-64
2022/05/15 06:33:46;;;;;;;;;;;;;;;17.54;39.54;100953.75;4810787;29;730;-62
2022/05/15 06:36:12;;;;;;;;;;;;;;;17.50;39.46;100959.00;4810662;29;1954;-63
2022/05/15 06:38:40;;;;;;;;;;;;;;;17.46;39.92;100960.66;4810712;29;868;-64
2022/05/15 06:41:07;;;;;;;;;;;;;;;17.47;39.80;100958.72;4810759;29;792;-65
2022/05/15 06:43:33;;;;;;;;;;;;;;;17.47;39.53;100955.97;4810251;29;910;-65
2022/05/15 06:45:58;;;;;;;;;;;;;;;17.41;39.81;100961.44;4809977;29;1000;-65
2022/05/15 06:48:24;;;;;;;;;;;;;;;17.38;39.42;100961.19;4808955;29;936;-66
2022/05/15 06:50:49;;;;;;;;;;;;;;;17.39;39.69;100963.66;4810290;29;845;-65
2022/05/15 06:53:15;;;;;;;;;;;;;;;17.38;39.45;100962.00;4810293;29;782;-65
2022/05/15 06:58:24;;;;;;;;;;;;;;;17.31;39.53;100964.22;4810165;29;894;-65
2022/05/15 07:00:50;;;;;;;;;;;;;;;17.34;39.46;100971.09;4810365;29;889;-65
2022/05/15 07:03:16;;;;;;;;;;;;;;;17.31;39.28;100972.44;4810001;29;926;-65
2022/05/15 07:05:42;;;;;;;;;;;;;;;17.28;39.44;100973.81;4810216;29;879;-65
2022/05/15 07:08:10;;;;;;;;;;;;;;;17.27;39.21;100971.34;4810170;29;840;-65
2022/05/15 07:10:35;;;;;;;;;;;;;;;17.28;39.43;100964.75;4809810;29;874;-66
2022/05/15 07:13:00;;;;;;;;;;;;;;;17.23;39.46;100971.06;4810216;29;859;-66
2022/05/15 07:15:26;;;;;;;;;;;;;;;17.22;39.24;100974.09;4809556;29;1904;-67
2022/05/15 07:17:51;;;;;;;;;;;;;;;17.16;39.21;100975.19;4810184;29;757;-67
2022/05/15 07:20:17;;;;;;;;;;;;;;;17.19;39.18;100963.66;4810048;29;765;-65
2022/05/15 07:22:43;;;;;;;;;;;;;;;17.24;39.29;100966.41;4809369;29;969;-64
2022/05/15 07:25:08;;;;;;;;;;;;;;;17.36;40.04;100966.97;4810243;29;824;-64
2022/05/15 07:27:34;;;;;;;;;;;;;;;17.55;40.97;100971.91;4809640;29;1036;-65
2022/05/15 07:29:59;;;;;;;;;;;;;;;17.91;42.48;100974.66;4809450;29;1020;-65
2022/05/15 07:32:25;;;;;;;;;;;;;;;18.23;43.61;100970.72;4809889;29;924;-63
2022/05/15 07:34:50;;;;;;;;;;;;;;;18.46;44.94;100970.09;4809206;29;905;-64
2022/05/15 07:37:17;;;;;;;;;;;;;;;18.72;45.32;100972.75;4809415;29;1986;-64
2022/05/15 07:39:42;;;;;;;;;;;;;;;18.67;45.53;100972.75;4809765;29;862;-64
2022/05/15 07:42:08;;;;;;;;;;;;;;;18.51;44.98;100976.69;4809787;29;825;-64
2022/05/15 07:44:34;;;;;;;;;;;;;;;18.36;44.01;100974.81;4809274;29;859;-64
2022/05/15 07:46:59;;;;;;;;;;;;;;;18.16;43.12;100971.03;4809703;29;1063;-64
2022/05/15 07:49:25;;;;;;;;;;;;;;;18.09;42.27;100976.81;4809363;29;846;-64
2022/05/15 07:51:50;;;;;;;;;;;;;;;18.01;41.56;100980.16;4809205;29;837;-64
2022/05/15 07:54:16;;;;;;;;;;;;;;;17.89;40.90;100976.81;4809053;29;781;-64
2022/05/15 07:56:41;;;;;;;;;;;;;;;17.87;40.58;100979.84;4809474;29;1915;-64
2022/05/15 07:59:07;;;;;;;;;;;;;;;17.76;40.12;100984.53;4809279;29;796;-64
2022/05/15 08:01:34;;;;;;;;;;;;;;;17.70;40.16;100995.84;4808692;29;928;-65
2022/05/15 08:03:59;;;;;;;;;;;;;;;17.64;39.92;100991.44;4809054;29;797;-64
2022/05/15 08:09:09;;;;;;;;;;;;;;;17.59;39.17;100993.06;4809314;29;773;-64
2022/05/15 08:11:36;;;;;;;;;;;;;;;17.53;39.16;100996.09;4809298;29;793;-64
2022/05/15 08:14:02;;;;;;;;;;;;;;;17.47;39.26;100994.44;4808510;29;976;-65
2022/05/15 08:16:27;;;;;;;;;;;;;;;17.43;39.29;100995.00;4808860;29;1986;-65
2022/05/15 08:24:20;;;;;;;;;;;;;;;17.35;39.14;100998.28;4809044;29;829;-65
2022/05/15 08:26:47;;;;;;;;;;;;;;;17.31;38.94;101005.44;4807459;29;1046;-65
2022/05/15 08:29:12;;;;;;;;;;;;;;;17.29;38.95;101002.13;4808748;29;1008;-66
2022/05/15 08:31:39;;;;;;;;;;;;;;;17.29;38.91;101013.13;4808983;29;1009;-65
2022/05/15 08:34:05;;;;;;;;;;;;;;;17.26;39.09;101009.00;4808476;29;888;-65
2022/05/15 08:36:30;;;;;;;;;;;;;;;17.25;39.12;101001.00;4809047;29;1911;-66
2022/05/15 08:38:56;;;;;;;;;;;;;;;17.24;39.11;101004.88;4808639;29;866;-65
2022/05/15 08:41:30;;;;;;;;;;;;;;;17.36;39.80;101013.69;4808491;29;818;-65
2022/05/15 08:44:33;;;;;;;;;;;;;;;17.54;40.93;101015.06;4809322;29;804;-66
2022/05/15 08:47:01;;;;;;;;;;;;;;;17.74;41.86;101008.75;4776377;30;1833;-65
2022/05/15 08:49:27;;;;;;;;;;;;;;;17.85;42.56;101008.75;4808123;29;905;-65
2022/05/15 08:51:56;;;;;;;;;;;;;;;18.02;42.70;101002.97;4814749;29;854;-65
2022/05/15 08:54:21;;;;;;;;;;;;;;;18.02;43.38;101012.06;4814884;29;765;-66
2022/05/15 08:56:47;;;;;;;;;;;;;;;18.10;43.69;101002.41;4813293;29;1977;-65
2022/05/15 08:59:30;;;;;;;;;;;;;;;18.19;43.90;101005.41;4814745;29;877;-66
2022/05/15 09:01:57;;;;;;;;;;;;;;;18.21;44.24;100998.53;4812208;29;1166;-67
2022/05/15 09:04:22;;;;;;;;;;;;;;;18.30;44.18;101005.13;4812424;29;1276;-65
2022/05/15 09:07:09;;;;;;;;;;;;;;;18.31;44.20;100994.91;4814228;29;1295;-66
2022/05/15 09:09:35;;;;;;;;;;;;;;;18.29;44.00;101002.66;4813230;29;945;-64
2022/05/15 09:12:17;;;;;;;;;;;;;;;18.18;43.40;100998.28;4814797;29;998;-65
2022/05/15 09:15:00;;;;;;;;;;;;;;;18.07;42.31;101001.03;4814361;29;873;-64
2022/05/15 09:17:34;;;;;;;;;;;;;;;17.98;41.59;100997.22;4804778;29;1915;-65
2022/05/15 09:20:07;;;;;;;;;;;;;;;17.89;41.02;101005.19;4813273;29;871;-64
2022/05/15 09:22:35;;;;;;;;;;;;;;;17.82;40.67;101004.59;4814469;29;825;-65
2022/05/15 09:25:01;;;;;;;;;;;;;;;17.73;40.38;101007.09;4813115;29;871;-65
2022/05/15 09:27:27;;;;;;;;;;;;;;;17.69;40.06;101008.75;4813341;29;1044;-65
2022/05/15 09:29:57;;;;;;;;;;;;;;;17.64;40.10;101008.75;4813833;29;866;-64
2022/05/15 09:32:31;;;;;;;;;;;;;;;17.62;39.72;101010.97;4814252;29;828;-65
2022/05/15 09:34:57;;;;;;;;;;;;;;;17.55;39.79;101004.91;4814091;29;820;-63
2022/05/15 09:40:37;;;;;;;;;;;;;;;17.46;39.60;100999.13;4814648;29;816;-64
2022/05/15 09:45:53;;;;;;;;;;;;;;;17.45;39.31;100994.72;4814191;29;805;-63
2022/05/15 09:48:20;;;;;;;;;;;;;;;17.41;39.28;100993.63;4812858;29;1253;-66
2022/05/15 09:50:48;;;;;;;;;;;;;;;17.41;39.40;100990.88;4812620;29;863;-62
2022/05/15 09:53:20;;;;;;;;;;;;;;;17.32;39.50;100984.25;4814402;29;788;-64
2022/05/15 09:56:09;;;;;;;;;;;;;;;17.35;39.39;100987.31;4812693;29;1911;-65
2022/05/15 09:58:39;;;;;;;;;;;;;;;17.34;39.53;100995.81;4806256;29;1504;-64
2022/05/15 10:01:31;;;;;;;;;;;;;;;17.34;39.47;100993.06;4811453;29;788;-62
2022/05/15 10:03:57;;;;;;;;;;;;;;;17.26;39.41;100986.19;4810134;29;1230;-66
2022/05/15 10:06:25;;;;;;;;;;;;;;;17.27;39.45;100982.34;4811154;29;899;-62
2022/05/15 10:09:04;;;;;;;;;;;;;;;17.31;39.64;100994.44;4811121;29;870;-66
2022/05/15 10:11:29;;;;;;;;;;;;;;;17.45;40.29;100984.56;4811273;29;874;-66
2022/05/15 10:13:55;;;;;;;;;;;;;;;17.57;41.35;100992.53;4809527;29;997;-66
2022/05/15 10:16:21;;;;;;;;;;;;;;;17.74;42.03;100989.50;4810634;29;1966;-65
2022/05/15 10:18:55;;;;;;;;;;;;;;;17.83;42.65;100988.94;4809599;29;836;-65
2022/05/15 10:21:20;;;;;;;;;;;;;;;17.95;43.12;100979.31;4809512;29;855;-64
2022/05/15 10:23:47;;;;;;;;;;;;;;;18.06;43.36;100979.28;4809770;29;828;-66
2022/05/15 10:26:17;;;;;;;;;;;;;;;18.11;43.74;100980.09;4809679;29;853;-65
2022/05/15 10:28:49;;;;;;;;;;;;;;;18.20;44.11;100976.78;4810737;29;1009;-62
2022/05/15 10:31:16;;;;;;;;;;;;;;;18.26;44.06;100976.50;4810832;29;1040;-67
2022/05/15 10:33:43;;;;;;;;;;;;;;;18.32;44.14;100985.56;4809316;29;1037;-67
2022/05/15 10:36:08;;;;;;;;;;;;;;;18.39;44.17;100980.56;4809031;29;1907;-64
2022/05/15 10:38:41;;;;;;;;;;;;;;;18.41;44.15;100978.38;4810463;29;809;-64
2022/05/15 10:41:26;;;;;;;;;;;;;;;18.30;43.63;100980.34;4809270;29;861;-65
2022/05/15 10:44:18;;;;;;;;;;;;;;;18.13;42.87;100982.56;4810634;29;1228;-67
2022/05/15 10:46:45;;;;;;;;;;;;;;;18.06;42.02;101001.31;4774221;29;1219;-65
2022/05/15 10:49:31;;;;;;;;;;;;;;;17.88;41.20;101002.69;4810292;29;1173;-65
2022/05/15 10:52:02;;;;;;;;;;;;;;;17.74;40.57;101011.50;4806060;29;1206;-65
2022/05/15 10:57:29;;;;;;;;;;;;;;;17.62;39.70;101000.78;4809745;29;1915;-64
2022/05/15 11:00:13;;;;;;;;;;;;;;;17.53;39.24;100996.09;4810024;29;901;-67
2022/05/15 11:02:57;;;;;;;;;;;;;;;17.53;39.16;100990.59;4810809;29;802;-65
2022/05/15 11:05:30;;;;;;;;;;;;;;;17.47;38.67;100988.97;4810248;29;786;-63
2022/05/15 11:08:01;;;;;;;;;;;;;;;17.40;38.75;100991.97;4809544;29;908;-62
2022/05/15 11:10:32;;;;;;;;;;;;;;;17.36;38.76;100993.63;4810385;29;797;-62
2022/05/15 11:12:58;;;;;;;;;;;;;;;17.35;38.76;100986.47;4808684;29;985;-66
2022/05/15 11:15:39;;;;;;;;;;;;;;;17.29;38.48;101002.13;4809920;29;1891;-64
2022/05/15 11:18:23;;;;;;;;;;;;;;;17.22;38.41;100994.16;4810121;29;772;-62
2022/05/15 11:20:53;;;;;;;;;;;;;;;17.18;38.45;100992.22;4809667;29;876;-61
2022/05/15 11:23:24;;;;;;;;;;;;;;;17.20;38.23;100995.53;4808449;29;1296;-62
2022/05/15 11:25:52;;;;;;;;;;;;;;;17.20;38.84;100998.28;4807998;29;1205;-61
2022/05/15 11:28:20;;;;;;;;;;;;;;;17.29;39.71;100988.38;4809902;29;1088;-62
2022/05/15 11:30:45;;;;;;;;;;;;;;;17.53;40.69;100979.59;4808159;29;1185;-65
2022/05/15 11:33:17;;;;;;;;;;;;;;;17.68;41.47;100987.84;4808823;29;758;-63
2022/05/15 11:36:03;;;;;;;;;;;;;;;17.84;42.32;100991.41;4809862;29;1900;-63
2022/05/15 11:38:28;;;;;;;;;;;;;;;17.90;42.90;100995.00;4809177;29;1189;-62
2022/05/15 11:40:54;;;;;;;;;;;;;;;17.95;43.21;100993.09;4809618;29;815;-61
2022/05/15 11:43:28;;;;;;;;;;;;;;;18.06;43.25;100985.66;4809777;29;824;-63
2022/05/15 11:45:54;;;;;;;;;;;;;;;18.13;43.67;100990.84;4809163;29;980;-63
2022/05/15 11:48:21;;;;;;;;;;;;;;;18.16;43.76;100987.53;4809198;29;841;-66
2022/05/15 11:50:49;;;;;;;;;;;;;;;18.20;43.90;100982.28;4809218;29;938;-67
2022/05/15 11:53:17;;;;;;;;;;;;;;;18.29;44.01;100980.63;4809318;29;845;-64
2022/05/15 11:55:43;;;;;;;;;;;;;;;18.35;44.12;100979.50;4807819;29;1980;-66
2022/05/15 11:58:12;;;;;;;;;;;;;;;18.34;44.05;100975.13;4808265;29;818;-64
2022/05/15 12:00:39;;;;;;;;;;;;;;;18.37;43.83;100966.28;4808782;29;985;-65
2022/05/15 12:03:06;;;;;;;;;;;;;;;18.29;42.93;100975.13;4807778;29;891;-64
2022/05/15 12:05:36;;;;;;;;;;;;;;;18.19;42.41;100964.97;4807952;29;1261;-64
2022/05/15 12:08:07;;;;;;;;;;;;;;;18.06;41.65;100958.13;4809201;29;757;-64
2022/05/15 12:10:33;;;;;;;;;;;;;;;17.97;41.17;100961.72;4808137;29;715;-64
2022/05/15 12:13:04;;;;;;;;;;;;;;;17.92;40.74;100951.53;4809344;29;911;-64
2022/05/15 12:15:34;;;;;;;;;;;;;;;17.81;40.38;100949.88;4808229;29;1968;-64
2022/05/15 12:18:00;;;;;;;;;;;;;;;17.70;40.12;100941.66;4809054;29;872;-63
2022/05/15 12:20:28;;;;;;;;;;;;;;;17.72;40.16;100930.38;4807219;29;747;-64
2022/05/15 12:22:54;;;;;;;;;;;;;;;17.72;39.77;100927.63;4809242;29;756;-64
2022/05/15 12:25:22;;;;;;;;;;;;;;;17.63;39.66;100916.38;4808999;29;745;-64
2022/05/15 12:30:52;;;;;;;;;;;;;;;17.60;39.63;100930.69;4807925;29;1018;-63
2022/05/15 12:33:23;;;;;;;;;;;;;;;17.54;39.48;100942.75;4808853;29;821;-64
2022/05/15 12:35:48;;;;;;;;;;;;;;;17.53;39.22;100930.09;4807310;29;1899;-64
2022/05/15 12:38:18;;;;;;;;;;;;;;;17.47;39.20;100943.03;4809086;29;860;-63
2022/05/15 12:40:54;;;;;;;;;;;;;;;17.43;39.23;100942.78;4807211;29;899;-64
2022/05/15 12:43:22;;;;;;;;;;;;;;;17.50;39.19;100947.16;4807639;29;801;-63
2022/05/15 12:45:47;;;;;;;;;;;;;;;17.50;39.16;100942.50;4808977;29;942;-64
2022/05/15 12:48:13;;;;;;;;;;;;;;;17.44;39.13;100938.91;4808638;29;840;-64
2022/05/15 12:50:57;;;;;;;;;;;;;;;17.39;39.28;100933.44;4807345;29;843;-63
2022/05/15 12:53:26;;;;;;;;;;;;;;;17.39;39.19;100922.44;4808318;29;849;-63
2022/05/15 12:55:52;;;;;;;;;;;;;;;17.39;39.36;100927.09;4808286;29;1927;-63
2022/05/15 12:58:31;;;;;;;;;;;;;;;17.39;39.29;100927.94;4808309;29;836;-63
2022/05/15 13:00:56;;;;;;;;;;;;;;;17.36;39.36;100925.75;4808732;29;887;-63
2022/05/15 13:03:22;;;;;;;;;;;;;;;17.34;39.37;100924.38;4808909;29;985;-63
2022/05/15 13:05:47;;;;;;;;;;;;;;;17.35;39.60;100924.09;4807318;29;891;-64
2022/05/15 13:08:13;;;;;;;;;;;;;;;17.31;39.71;100922.97;4808760;29;832;-63
2022/05/15 13:10:41;;;;;;;;;;;;;;;17.35;39.62;100923.25;4807892;29;891;-62
2022/05/15 13:13:11;;;;;;;;;;;;;;;17.28;39.45;100920.78;4807592;29;958;-64
2022/05/15 13:15:36;;;;;;;;;;;;;;;17.36;39.27;100903.75;4808298;29;1895;-63
2022/05/15 13:18:04;;;;;;;;;;;;;;;17.30;39.55;100909.53;4807188;29;798;-64
2022/05/15 13:20:31;;;;;;;;;;;;;;;17.38;39.84;100909.78;4807946;29;842;-64